Pembroke Park, Florida
Current Conditions -  °F | °C
As of 6:53 PM on Wednesday 22 Oct 2014 (Local Time) from KHWO Reporting Station
Light Rain Light Rain  
Wind Chill: 77°   Ceiling: Unl
Heat Index: 78°   Visibility: 10mi
Dew Point: 74°   Wind: 0mph
Humidity: 90%   Direction: NA
Pressure: 29.94"   Gusts: NA
Location:  25.9859°N, 80.1469°W
Report Text: KHWO 222253Z 00000KT 10SM -RA CLR 25/23 A2994 RMK AO2 SLP137 P0001 T02500233
Loading
Personal Weather Stations






























Interactive Weather Map
Tropical Storm Tracking
New forecast layout! Learn more

10-Day Weather Forecast

Advertisements
Track Severe Weather on mobile